createdAt,value
2022-08-25T00:02:12.421Z,4.30
2022-08-25T00:04:39.017Z,4.50
2022-08-25T00:07:07.026Z,4.45
2022-08-25T00:09:34.692Z,4.47
2022-08-25T00:12:02.983Z,4.30
2022-08-25T00:14:35.963Z,4.72
2022-08-25T00:17:05.212Z,4.68
2022-08-25T00:19:35.393Z,4.68
2022-08-25T00:22:02.752Z,5.13
2022-08-25T00:24:29.684Z,4.90
2022-08-25T00:26:58.226Z,4.95
2022-08-25T00:29:26.370Z,5.38
2022-08-25T00:31:53.912Z,4.85
2022-08-25T00:34:23.826Z,5.43
2022-08-25T00:36:53.375Z,5.30
2022-08-25T00:39:22.910Z,5.70
2022-08-25T00:41:51.157Z,5.15
2022-08-25T00:44:18.856Z,5.32
2022-08-25T00:46:51.730Z,5.68
2022-08-25T00:49:29.353Z,5.53
2022-08-25T00:52:02.928Z,5.47
2022-08-25T00:54:37.626Z,5.28
2022-08-25T00:57:05.707Z,4.68
2022-08-25T00:59:32.809Z,5.43
2022-08-25T01:01:59.978Z,6.18
2022-08-25T01:04:27.295Z,5.38
2022-08-25T01:06:55.728Z,5.43
2022-08-25T01:09:22.617Z,5.75
2022-08-25T01:11:49.521Z,6.15
2022-08-25T01:14:18.206Z,5.28
2022-08-25T01:16:45.291Z,5.78
2022-08-25T01:19:15.387Z,6.00
2022-08-25T01:21:48.261Z,5.00
2022-08-25T01:24:31.762Z,5.65
2022-08-25T01:26:58.553Z,5.75
2022-08-25T01:29:27.689Z,6.20
2022-08-25T01:32:00.252Z,5.63
2022-08-25T01:34:29.846Z,6.57
2022-08-25T01:36:57.797Z,6.00
2022-08-25T01:39:26.680Z,5.60
2022-08-25T01:42:02.791Z,5.97
2022-08-25T01:44:30.820Z,5.35
2022-08-25T01:46:57.406Z,5.90
2022-08-25T01:49:23.893Z,5.43
2022-08-25T01:52:01.326Z,5.45
2022-08-25T01:54:27.889Z,6.50
2022-08-25T01:56:54.424Z,6.70
2022-08-25T01:59:24.121Z,6.60
2022-08-25T02:01:51.886Z,6.22
2022-08-25T02:04:26.871Z,6.03
2022-08-25T02:06:53.409Z,6.72
2022-08-25T02:09:19.904Z,6.75
2022-08-25T02:11:47.860Z,5.93
2022-08-25T02:14:16.888Z,5.88
2022-08-25T02:16:48.293Z,6.88
2022-08-25T02:19:15.597Z,7.28
2022-08-25T02:21:42.412Z,6.22
2022-08-25T02:24:09.987Z,6.63
2022-08-25T02:26:36.577Z,6.68
2022-08-25T02:29:04.604Z,6.32
2022-08-25T02:31:31.541Z,7.13
2022-08-25T02:33:58.127Z,7.32
2022-08-25T02:36:24.826Z,6.43
2022-08-25T02:38:51.355Z,7.35
2022-08-25T02:41:21.441Z,7.00
2022-08-25T02:43:49.409Z,7.15
2022-08-25T02:46:19.925Z,7.00
2022-08-25T02:48:47.809Z,7.07
2022-08-25T02:51:14.804Z,6.72
2022-08-25T02:53:42.184Z,7.35
2022-08-25T02:56:10.519Z,7.07
2022-08-25T02:58:38.704Z,7.78
2022-08-25T03:01:06.800Z,7.70
2022-08-25T03:03:38.828Z,7.60
2022-08-25T03:06:08.668Z,7.80
2022-08-25T03:08:36.793Z,7.57
2022-08-25T03:11:05.079Z,7.03
2022-08-25T03:13:32.611Z,7.60
2022-08-25T03:16:00.600Z,7.18
2022-08-25T03:18:27.636Z,7.68
2022-08-25T03:20:55.106Z,6.85
2022-08-25T03:23:21.670Z,7.15
2022-08-25T03:26:07.229Z,7.75
2022-08-25T03:28:33.978Z,7.78
2022-08-25T03:31:01.178Z,7.03
2022-08-25T03:33:30.237Z,7.05
2022-08-25T03:35:57.457Z,8.57
2022-08-25T03:38:25.326Z,8.48
2022-08-25T03:40:52.497Z,8.35
2022-08-25T03:43:19.625Z,8.65
2022-08-25T03:45:47.212Z,8.95
2022-08-25T03:48:15.181Z,9.07
2022-08-25T03:50:50.468Z,7.97
2022-08-25T03:53:18.922Z,7.93
2022-08-25T03:55:45.615Z,8.57
2022-08-25T03:58:12.394Z,8.48
2022-08-25T04:00:39.381Z,9.15
2022-08-25T04:03:06.039Z,8.90
2022-08-25T04:05:32.742Z,8.82
2022-08-25T04:08:01.821Z,9.10
2022-08-25T04:10:29.291Z,9.05
2022-08-25T04:12:56.212Z,9.30
2022-08-25T04:15:24.899Z,8.80
2022-08-25T04:17:55.369Z,9.05
2022-08-25T04:20:22.049Z,9.38
2022-08-25T04:22:48.637Z,9.73
2022-08-25T04:25:15.223Z,10.02
2022-08-25T04:27:42.103Z,8.88
2022-08-25T04:30:09.870Z,9.68
2022-08-25T04:32:37.033Z,10.05
2022-08-25T04:35:05.280Z,10.15
2022-08-25T04:37:32.474Z,9.57
2022-08-25T04:39:59.067Z,10.57
2022-08-25T04:42:27.165Z,9.90
2022-08-25T04:44:54.498Z,9.93
2022-08-25T04:47:21.266Z,9.30
2022-08-25T04:49:47.858Z,9.60
2022-08-25T04:52:17.283Z,9.75
2022-08-25T04:54:43.995Z,10.02
2022-08-25T04:57:10.972Z,9.82
2022-08-25T04:59:37.924Z,9.88
2022-08-25T05:02:06.674Z,10.25
2022-08-25T05:04:35.514Z,9.57
2022-08-25T05:07:03.073Z,10.35
2022-08-25T05:09:32.488Z,10.48
2022-08-25T05:12:00.993Z,11.48
2022-08-25T05:14:28.682Z,10.98
2022-08-25T05:16:56.103Z,10.45
2022-08-25T05:19:24.102Z,10.65
2022-08-25T05:21:51.273Z,10.98
2022-08-25T05:24:18.359Z,10.45
2022-08-25T05:26:44.850Z,11.32
2022-08-25T05:29:12.745Z,10.90
2022-08-25T05:31:43.176Z,11.10
2022-08-25T05:34:12.161Z,11.25
2022-08-25T05:36:43.137Z,11.10
2022-08-25T05:39:10.565Z,10.13
2022-08-25T05:41:37.812Z,9.80
2022-08-25T05:44:04.508Z,10.77
2022-08-25T05:46:32.053Z,10.52
2022-08-25T05:48:59.170Z,11.02
2022-08-25T05:51:26.751Z,10.65
2022-08-25T05:53:54.054Z,11.68
2022-08-25T05:56:21.603Z,11.23
2022-08-25T05:58:48.885Z,11.10
2022-08-25T06:01:43.548Z,10.85
2022-08-25T06:04:12.397Z,10.07
2022-08-25T06:06:39.572Z,12.13
2022-08-25T06:09:08.573Z,10.23
2022-08-25T06:11:37.300Z,10.88
2022-08-25T06:14:04.649Z,10.50
2022-08-25T06:16:31.531Z,9.57
2022-08-25T06:18:58.688Z,10.50
2022-08-25T06:21:25.442Z,11.18
2022-08-25T06:23:52.728Z,10.77
2022-08-25T06:26:21.151Z,10.15
2022-08-25T06:28:52.140Z,10.35
2022-08-25T06:31:20.593Z,9.95
2022-08-25T06:33:47.316Z,10.05
2022-08-25T06:36:15.029Z,10.13
2022-08-25T06:38:41.504Z,10.00
2022-08-25T06:41:10.569Z,9.57
2022-08-25T06:43:37.100Z,10.32
2022-08-25T06:46:14.056Z,9.68
2022-08-25T06:48:41.101Z,9.07
2022-08-25T06:51:09.492Z,8.75
2022-08-25T06:53:40.613Z,8.57
2022-08-25T06:56:07.276Z,9.05
2022-08-25T06:58:34.311Z,9.50
2022-08-25T07:01:14.911Z,9.10
2022-08-25T07:03:43.731Z,8.68
2022-08-25T07:06:10.410Z,7.97
2022-08-25T07:08:37.215Z,8.77
2022-08-25T07:11:08.150Z,8.80
2022-08-25T07:13:43.974Z,8.50
2022-08-25T07:16:15.468Z,7.78
2022-08-25T07:18:44.214Z,8.45
2022-08-25T07:21:12.350Z,8.65
2022-08-25T07:23:40.076Z,8.55
2022-08-25T07:29:08.320Z,7.75
2022-08-25T07:31:35.356Z,8.15
2022-08-25T07:34:20.751Z,8.27
2022-08-25T07:36:47.581Z,8.15
2022-08-25T07:39:14.052Z,8.43
2022-08-25T07:41:42.096Z,7.95
2022-08-25T07:44:10.590Z,8.32
2022-08-25T07:46:38.256Z,8.65
2022-08-25T07:49:13.315Z,8.02
2022-08-25T07:52:04.560Z,8.43
2022-08-25T07:54:34.337Z,8.05
2022-08-25T07:57:01.563Z,8.18
2022-08-25T07:59:28.264Z,7.82
2022-08-25T08:01:54.833Z,7.80
2022-08-25T08:04:22.247Z,7.70
2022-08-25T08:06:48.707Z,7.75
2022-08-25T08:09:16.154Z,7.05
2022-08-25T08:11:53.753Z,7.03
2022-08-25T08:14:21.314Z,7.72
2022-08-25T08:16:47.773Z,7.18
2022-08-25T08:19:16.565Z,6.78
2022-08-25T08:21:43.810Z,6.38
2022-08-25T08:24:31.112Z,6.15
2022-08-25T08:26:58.927Z,7.07
2022-08-25T08:29:25.893Z,6.72
2022-08-25T08:31:52.511Z,6.57
2022-08-25T08:34:18.998Z,6.78
2022-08-25T08:36:45.566Z,6.30
2022-08-25T08:39:12.309Z,6.22
2022-08-25T08:42:17.167Z,6.15
2022-08-25T08:44:46.586Z,5.95
2022-08-25T08:47:42.697Z,6.40
2022-08-25T08:50:47.878Z,6.57
2022-08-25T08:53:23.537Z,6.30
2022-08-25T08:55:55.680Z,5.97
2022-08-25T08:58:42.289Z,5.70
2022-08-25T09:01:17.611Z,5.93
2022-08-25T09:03:55.302Z,5.97
2022-08-25T09:06:31.808Z,5.95
2022-08-25T09:09:02.041Z,5.85
2022-08-25T09:11:46.641Z,6.75
2022-08-25T09:14:35.996Z,6.35
2022-08-25T09:17:16.911Z,5.35
2022-08-25T09:20:18.900Z,5.60
2022-08-25T09:22:59.025Z,5.82
2022-08-25T09:25:52.765Z,6.20
2022-08-25T09:28:35.708Z,6.43
2022-08-25T09:31:29.805Z,6.10
2022-08-25T09:33:59.950Z,6.55
2022-08-25T09:36:27.001Z,5.65
2022-08-25T09:38:53.516Z,5.97
2022-08-25T09:41:51.555Z,5.40
2022-08-25T09:44:24.292Z,5.68
2022-08-25T09:47:01.937Z,5.75
2022-08-25T09:49:38.847Z,5.82
2022-08-25T09:52:32.558Z,5.38
2022-08-25T09:55:27.458Z,5.47
2022-08-25T09:57:56.842Z,5.90
2022-08-25T10:00:33.679Z,4.80
2022-08-25T10:03:22.704Z,4.95
2022-08-25T10:06:12.806Z,4.75
2022-08-25T10:08:45.676Z,5.22
2022-08-25T10:11:15.435Z,5.00
2022-08-25T10:13:47.432Z,4.80
2022-08-25T10:16:30.818Z,4.97
2022-08-25T10:19:10.597Z,5.10
2022-08-25T10:21:39.575Z,5.90
2022-08-25T10:24:08.457Z,4.65
2022-08-25T10:27:03.375Z,4.75
2022-08-25T10:30:03.003Z,4.70
2022-08-25T10:33:08.154Z,5.28
2022-08-25T10:36:10.360Z,4.50
2022-08-25T10:38:49.980Z,4.82
2022-08-25T10:41:39.096Z,4.97
2022-08-25T10:44:34.277Z,5.07
2022-08-25T10:47:44.004Z,4.80
2022-08-25T10:50:23.427Z,4.38
2022-08-25T10:53:00.815Z,4.93
2022-08-25T10:55:47.113Z,4.88
2022-08-25T10:58:44.684Z,4.28
2022-08-25T11:01:44.113Z,4.40
2022-08-25T11:04:47.219Z,4.10
2022-08-25T11:07:28.875Z,4.20
2022-08-25T11:10:02.740Z,3.90
2022-08-25T11:12:34.900Z,4.03
2022-08-25T11:15:09.954Z,4.50
2022-08-25T11:17:53.103Z,4.05
2022-08-25T11:20:28.694Z,3.63
2022-08-25T11:23:08.687Z,4.97
2022-08-25T11:25:43.010Z,3.85
2022-08-25T11:28:35.809Z,3.92
2022-08-25T11:31:04.421Z,4.07
2022-08-25T11:33:33.058Z,4.10
2022-08-25T11:36:12.801Z,4.20
2022-08-25T11:38:55.051Z,3.97
2022-08-25T11:41:43.391Z,4.63
2022-08-25T11:44:39.197Z,4.25
2022-08-25T11:47:27.193Z,4.30
2022-08-25T11:50:07.360Z,4.05
2022-08-25T11:52:34.978Z,4.30
2022-08-25T11:55:16.656Z,4.05
2022-08-25T11:57:46.795Z,4.28
2022-08-25T12:00:41.819Z,4.20
2022-08-25T12:03:36.818Z,4.03
2022-08-25T12:06:21.722Z,3.95
2022-08-25T12:08:48.573Z,4.32
2022-08-25T12:11:37.775Z,4.40
2022-08-25T12:14:13.937Z,4.53
2022-08-25T12:16:45.711Z,4.30
2022-08-25T12:19:26.029Z,4.18
2022-08-25T12:22:18.878Z,4.55
2022-08-25T12:25:03.257Z,4.60
2022-08-25T12:27:46.136Z,4.65
2022-08-25T12:30:45.687Z,4.20
2022-08-25T12:33:15.185Z,4.25
2022-08-25T12:35:59.164Z,4.32
2022-08-25T12:38:51.919Z,3.90
2022-08-25T12:41:27.233Z,3.83
2022-08-25T12:44:39.638Z,3.65
2022-08-25T12:47:32.350Z,4.07
2022-08-25T12:50:33.367Z,4.50
2022-08-25T12:53:13.982Z,3.95
2022-08-25T12:55:47.407Z,3.70
2022-08-25T12:58:16.208Z,3.65
2022-08-25T13:01:10.643Z,3.80
2022-08-25T13:03:58.462Z,4.13
2022-08-25T13:06:55.969Z,4.30
2022-08-25T13:09:39.769Z,4.30
2022-08-25T13:12:17.731Z,3.90
2022-08-25T13:14:52.086Z,3.80
2022-08-25T13:17:36.702Z,4.68
2022-08-25T13:20:15.889Z,4.00
2022-08-25T13:22:47.425Z,3.95
2022-08-25T13:25:18.320Z,3.95
2022-08-25T13:27:53.388Z,4.13
2022-08-25T13:30:28.997Z,4.07
2022-08-25T13:32:55.882Z,3.60
2022-08-25T13:35:32.507Z,3.95
2022-08-25T13:38:18.219Z,4.05
2022-08-25T13:40:45.482Z,4.05
2022-08-25T13:43:14.936Z,3.55
2022-08-25T13:45:47.057Z,3.95
2022-08-25T13:48:30.888Z,4.15
2022-08-25T13:51:23.752Z,3.97
2022-08-25T13:53:59.094Z,3.78
2022-08-25T13:56:41.177Z,4.10
2022-08-25T13:59:25.743Z,3.83
2022-08-25T14:01:55.098Z,4.15
2022-08-25T14:04:32.587Z,4.13
2022-08-25T14:07:14.243Z,4.07
2022-08-25T14:09:48.227Z,4.28
2022-08-25T14:12:39.451Z,3.83
2022-08-25T14:15:16.877Z,3.60
2022-08-25T14:17:59.479Z,3.95
2022-08-25T14:20:29.139Z,4.03
2022-08-25T14:22:59.353Z,3.72
2022-08-25T14:25:28.018Z,3.95
2022-08-25T14:28:08.101Z,3.92
2022-08-25T14:30:55.971Z,3.75
2022-08-25T14:33:26.816Z,3.85
2022-08-25T14:35:57.838Z,3.80
2022-08-25T14:38:24.977Z,3.00
2022-08-25T14:40:53.386Z,3.67
2022-08-25T14:43:24.155Z,3.65
2022-08-25T14:45:58.280Z,4.15
2022-08-25T14:48:35.463Z,4.10
2022-08-25T14:51:03.848Z,3.78
2022-08-25T14:53:30.459Z,3.78
2022-08-25T14:55:59.023Z,3.83
2022-08-25T14:58:26.875Z,3.55
2022-08-25T15:00:54.160Z,3.60
2022-08-25T15:03:32.865Z,3.75
2022-08-25T15:06:01.345Z,3.60
2022-08-25T15:08:46.720Z,3.67
2022-08-25T15:11:14.579Z,4.15
2022-08-25T15:13:44.645Z,3.97
2022-08-25T15:16:20.870Z,4.03
2022-08-25T15:18:47.631Z,3.60
2022-08-25T15:21:15.830Z,3.42
2022-08-25T15:23:44.568Z,3.90
2022-08-25T15:26:15.447Z,4.40
2022-08-25T15:28:48.640Z,4.30
2022-08-25T15:31:17.003Z,3.72
2022-08-25T15:33:44.201Z,3.60
2022-08-25T15:36:15.203Z,3.97
2022-08-25T15:38:46.709Z,3.85
2022-08-25T15:41:13.278Z,4.00
2022-08-25T15:43:39.933Z,4.28
2022-08-25T15:46:07.114Z,3.53
2022-08-25T15:48:35.253Z,3.80
2022-08-25T15:51:02.082Z,3.50
2022-08-25T15:53:31.300Z,3.90
2022-08-25T15:55:57.946Z,3.95
2022-08-25T15:58:32.423Z,3.80
2022-08-25T16:00:59.853Z,4.20
2022-08-25T16:03:27.147Z,3.78
2022-08-25T16:05:53.937Z,4.20
2022-08-25T16:08:20.657Z,3.75
2022-08-25T16:10:47.515Z,3.70
2022-08-25T16:13:14.450Z,3.60
2022-08-25T16:15:46.782Z,4.00
2022-08-25T16:18:19.600Z,3.60
2022-08-25T16:20:47.689Z,3.38
2022-08-25T16:23:16.045Z,3.78
2022-08-25T16:25:44.946Z,3.53
2022-08-25T16:28:15.830Z,4.15
2022-08-25T16:30:52.449Z,3.80
2022-08-25T16:33:20.395Z,3.58
2022-08-25T16:35:47.626Z,3.95
2022-08-25T16:38:16.011Z,3.47
2022-08-25T16:40:43.204Z,3.38
2022-08-25T16:43:10.602Z,3.42
2022-08-25T16:45:37.483Z,3.72
2022-08-25T16:48:05.681Z,3.72
2022-08-25T16:50:34.619Z,3.58
2022-08-25T16:53:20.041Z,4.20
2022-08-25T16:58:26.172Z,4.05
2022-08-25T17:00:53.525Z,3.72
2022-08-25T17:03:21.200Z,4.30
2022-08-25T17:05:48.764Z,4.35
2022-08-25T17:08:31.220Z,4.03
2022-08-25T17:11:10.777Z,4.15
2022-08-25T17:13:39.868Z,4.80
2022-08-25T17:16:12.320Z,4.15
2022-08-25T17:18:41.961Z,4.40
2022-08-25T17:21:19.539Z,3.95
2022-08-25T17:23:51.232Z,4.15
2022-08-25T17:26:18.395Z,5.15
2022-08-25T17:28:46.085Z,4.50
2022-08-25T17:31:14.325Z,4.13
2022-08-25T17:33:41.805Z,4.68
2022-08-25T17:36:09.332Z,4.25
2022-08-25T17:38:37.128Z,3.85
2022-08-25T17:41:09.002Z,4.68
2022-08-25T17:43:38.565Z,4.53
2022-08-25T17:46:05.971Z,4.47
2022-08-25T17:48:33.184Z,4.18
2022-08-25T17:51:01.103Z,4.47
2022-08-25T17:53:27.876Z,4.03
2022-08-25T17:56:00.424Z,4.80
2022-08-25T17:58:28.409Z,4.88
2022-08-25T18:00:56.735Z,3.83
2022-08-25T18:03:25.547Z,4.32
2022-08-25T18:05:53.039Z,4.45
2022-08-25T18:08:19.966Z,5.00
2022-08-25T18:10:58.655Z,4.38
2022-08-25T18:13:26.757Z,4.57
2022-08-25T18:15:55.072Z,4.63
2022-08-25T18:18:21.590Z,4.90
2022-08-25T18:20:51.118Z,5.07
2022-08-25T18:23:19.770Z,4.15
2022-08-25T18:25:48.749Z,5.00
2022-08-25T18:28:15.668Z,4.63
2022-08-25T18:30:42.779Z,4.57
2022-08-25T18:33:10.425Z,4.43
2022-08-25T18:35:38.032Z,4.50
2022-08-25T18:38:24.860Z,4.72
2022-08-25T18:41:10.535Z,4.57
2022-08-25T18:43:39.022Z,4.75
2022-08-25T18:46:06.555Z,4.93
2022-08-25T18:48:34.978Z,6.10
2022-08-25T18:51:02.444Z,6.00
2022-08-25T18:53:37.480Z,5.22
2022-08-25T18:56:16.589Z,5.10
2022-08-25T18:58:43.205Z,4.90
2022-08-25T19:01:13.596Z,5.43
2022-08-25T19:03:40.240Z,5.97
2022-08-25T19:06:07.060Z,6.60
2022-08-25T19:08:33.622Z,5.85
2022-08-25T19:11:00.169Z,5.70
2022-08-25T19:13:26.771Z,5.68
2022-08-25T19:15:53.973Z,5.30
2022-08-25T19:18:25.975Z,5.80
2022-08-25T19:20:52.748Z,4.93
2022-08-25T19:23:19.673Z,5.32
2022-08-25T19:25:46.760Z,5.45
2022-08-25T19:28:13.764Z,4.90
2022-08-25T19:30:49.777Z,4.97
2022-08-25T19:33:42.460Z,5.10
2022-08-25T19:36:08.686Z,4.93
2022-08-25T19:38:37.245Z,5.05
2022-08-25T19:41:13.909Z,4.20
2022-08-25T19:43:50.579Z,5.25
2022-08-25T19:46:23.230Z,5.30
2022-08-25T19:48:49.884Z,6.05
2022-08-25T19:51:19.363Z,5.40
2022-08-25T19:53:54.293Z,6.07
2022-08-25T19:56:22.468Z,5.28
2022-08-25T19:58:49.044Z,5.10
2022-08-25T20:01:18.181Z,5.20
2022-08-25T20:03:45.553Z,5.65
2022-08-25T20:06:15.856Z,5.72
2022-08-25T20:08:43.737Z,5.90
2022-08-25T20:11:11.005Z,5.95
2022-08-25T20:13:37.768Z,5.55
2022-08-25T20:16:05.482Z,6.10
2022-08-25T20:18:32.452Z,5.65
2022-08-25T20:20:59.040Z,5.55
2022-08-25T20:23:44.121Z,5.88
2022-08-25T20:26:10.663Z,6.03
2022-08-25T20:28:37.290Z,5.63
2022-08-25T20:31:04.060Z,5.22
2022-08-25T20:33:30.875Z,5.10
2022-08-25T20:35:58.344Z,5.30
2022-08-25T20:38:26.935Z,6.00
2022-08-25T20:40:53.453Z,6.03
2022-08-25T20:43:20.854Z,6.05
2022-08-25T20:45:47.827Z,5.53
2022-08-25T20:48:14.419Z,6.00
2022-08-25T20:50:40.965Z,5.70
2022-08-25T20:53:10.303Z,5.60
2022-08-25T20:55:43.850Z,5.70
2022-08-25T20:58:12.637Z,5.70
2022-08-25T21:00:45.691Z,6.28
2022-08-25T21:03:12.438Z,5.35
2022-08-25T21:05:41.227Z,5.78
2022-08-25T21:08:08.299Z,6.10
2022-08-25T21:10:35.205Z,5.70
2022-08-25T21:13:02.053Z,5.68
2022-08-25T21:15:28.748Z,5.38
2022-08-25T21:17:55.659Z,5.55
2022-08-25T21:20:23.908Z,5.68
2022-08-25T21:22:51.442Z,5.55
2022-08-25T21:25:21.217Z,5.40
2022-08-25T21:27:47.942Z,6.28
2022-08-25T21:30:16.183Z,6.18
2022-08-25T21:32:53.139Z,5.78
2022-08-25T21:35:22.397Z,6.40
2022-08-25T21:37:53.459Z,6.22
2022-08-25T21:40:21.764Z,5.88
2022-08-25T21:42:48.911Z,6.45
2022-08-25T21:45:15.652Z,6.40
2022-08-25T21:47:42.608Z,5.78
2022-08-25T21:50:13.825Z,5.95
2022-08-25T21:52:41.265Z,5.97
2022-08-25T21:55:15.781Z,5.82
2022-08-25T21:57:43.794Z,5.82
2022-08-25T22:00:13.038Z,6.13
2022-08-25T22:02:39.594Z,6.20
2022-08-25T22:05:11.502Z,5.45
2022-08-25T22:07:42.085Z,6.25
2022-08-25T22:10:16.801Z,6.35
2022-08-25T22:12:45.784Z,6.53
2022-08-25T22:15:13.572Z,5.93
2022-08-25T22:17:40.499Z,5.80
2022-08-25T22:20:08.391Z,5.82
2022-08-25T22:22:35.624Z,6.18
2022-08-25T22:25:03.178Z,6.30
2022-08-25T22:27:30.319Z,6.03
2022-08-25T22:29:56.977Z,6.05
2022-08-25T22:32:23.606Z,5.65
2022-08-25T22:34:50.448Z,6.68
2022-08-25T22:37:17.938Z,5.30
2022-08-25T22:39:45.727Z,6.30
2022-08-25T22:42:12.545Z,6.10
2022-08-25T22:44:40.656Z,5.63
2022-08-25T22:47:07.499Z,5.88
2022-08-25T22:49:35.475Z,6.05
2022-08-25T22:52:02.195Z,5.97
2022-08-25T22:54:29.898Z,6.60
2022-08-25T22:56:56.531Z,7.15
2022-08-25T22:59:23.360Z,6.35
2022-08-25T23:01:52.590Z,6.07
2022-08-25T23:04:21.689Z,6.78
2022-08-25T23:06:49.296Z,5.38
2022-08-25T23:09:16.029Z,6.32
2022-08-25T23:11:43.031Z,5.82
2022-08-25T23:14:11.054Z,6.05
2022-08-25T23:16:42.340Z,6.15
2022-08-25T23:19:13.976Z,5.63
2022-08-25T23:21:59.577Z,5.80
2022-08-25T23:24:29.994Z,6.68
2022-08-25T23:27:03.903Z,6.25
2022-08-25T23:29:31.767Z,6.05
2022-08-25T23:31:58.664Z,6.32
2022-08-25T23:34:26.669Z,6.22
2022-08-25T23:36:55.963Z,6.10
2022-08-25T23:39:22.544Z,6.07
2022-08-25T23:41:49.809Z,6.50
2022-08-25T23:44:17.217Z,6.28
2022-08-25T23:46:44.874Z,5.65
2022-08-25T23:49:11.809Z,5.78
2022-08-25T23:51:40.035Z,6.18
2022-08-25T23:54:10.826Z,6.32
2022-08-25T23:56:44.914Z,6.68
2022-08-25T23:59:24.322Z,6.05
